createdAt,value
2023-01-22T00:01:44.913Z,102384.41
2023-01-22T00:06:36.521Z,102456.88
2023-01-22T00:11:28.075Z,102310.31
2023-01-22T00:16:20.381Z,102387.41
2023-01-22T00:21:13.040Z,102332.75
2023-01-22T00:26:07.309Z,102438.56
2023-01-22T00:31:02.000Z,102440.09
2023-01-22T00:35:53.875Z,102254.28
2023-01-22T00:40:47.327Z,102331.19
2023-01-22T00:45:39.944Z,102413.53
2023-01-22T00:50:31.845Z,102309.69
2023-01-22T00:55:24.397Z,102365.69
2023-01-22T01:00:18.485Z,102400.63
2023-01-22T01:05:11.666Z,102389.97
2023-01-22T01:10:04.160Z,102217.22
2023-01-22T01:14:56.410Z,102404.25
2023-01-22T01:19:48.394Z,102339.97
2023-01-22T01:24:40.016Z,102227.94
2023-01-22T01:29:32.361Z,102413.47
2023-01-22T01:34:23.984Z,102398.78
2023-01-22T01:39:15.601Z,102407.66
2023-01-22T01:44:18.465Z,102393.19
2023-01-22T01:49:22.300Z,102384.94
2023-01-22T01:54:15.548Z,102341.94
2023-01-22T01:59:12.708Z,102388.88
2023-01-22T02:04:04.551Z,102364.25
2023-01-22T02:08:58.157Z,102252.31
2023-01-22T02:13:55.901Z,102310.94
2023-01-22T02:18:47.538Z,102369.75
2023-01-22T02:23:39.134Z,102172.38
2023-01-22T02:28:30.749Z,102372.63
2023-01-22T02:33:22.381Z,102369.75
2023-01-22T02:38:14.267Z,102377.38
2023-01-22T02:43:06.016Z,102360.75
2023-01-22T02:47:58.870Z,102353.63
2023-01-22T02:52:52.417Z,102295.75
2023-01-22T02:57:44.945Z,102373.16
2023-01-22T03:02:36.615Z,102370.47
2023-01-22T03:07:34.498Z,102344.13
2023-01-22T03:12:27.889Z,102373.06
2023-01-22T03:17:38.956Z,102276.97
2023-01-22T03:22:30.692Z,102355.06
2023-01-22T03:27:25.830Z,102317.16
2023-01-22T03:32:18.460Z,102306.59
2023-01-22T03:37:15.211Z,102187.34
2023-01-22T03:42:09.388Z,102292.56
2023-01-22T03:47:01.450Z,102294.09
2023-01-22T03:51:53.090Z,102329.84
2023-01-22T03:56:46.169Z,102185.81
2023-01-22T04:01:46.414Z,102332.44
2023-01-22T04:06:38.043Z,102273.28
2023-01-22T04:11:29.678Z,102277.06
2023-01-22T04:16:22.227Z,102348.34
2023-01-22T04:21:23.177Z,102343.91
2023-01-22T04:26:19.524Z,102352.47
2023-01-22T04:31:11.251Z,102349.78
2023-01-22T04:36:09.688Z,102326.44
2023-01-22T04:41:01.972Z,102261.69
2023-01-22T04:45:53.766Z,102256.72
2023-01-22T04:50:51.263Z,102347.94
2023-01-22T04:55:43.675Z,102350.41
2023-01-22T05:00:38.652Z,102357.34
2023-01-22T05:05:31.834Z,102346.78
2023-01-22T05:10:24.219Z,102353.81
2023-01-22T05:15:24.169Z,102348.88
2023-01-22T05:20:19.420Z,102356.63
2023-01-22T05:25:11.293Z,102316.44
2023-01-22T05:30:04.447Z,102353.31
2023-01-22T05:35:14.976Z,102330.38
2023-01-22T05:40:09.829Z,102299.47
2023-01-22T05:45:02.637Z,102345.44
2023-01-22T05:49:56.507Z,102283.47
2023-01-22T05:54:48.218Z,102366.53
2023-01-22T05:59:40.120Z,102368.59
2023-01-22T06:04:34.405Z,102369.63
2023-01-22T06:09:30.779Z,102371.91
2023-01-22T06:14:22.933Z,102299.59
2023-01-22T06:19:14.763Z,102295.03
2023-01-22T06:24:15.655Z,102371.28
2023-01-22T06:29:07.328Z,102372.31
2023-01-22T06:33:59.941Z,102171.16
2023-01-22T06:38:51.825Z,102286.25
2023-01-22T06:43:56.797Z,102366.00
2023-01-22T06:48:49.931Z,102346.50
2023-01-22T06:53:41.736Z,102383.50
2023-01-22T06:58:33.330Z,102387.81
2023-01-22T07:03:25.230Z,102317.66
2023-01-22T07:08:16.861Z,102393.81
2023-01-22T07:13:10.371Z,102303.50
2023-01-22T07:18:02.012Z,102364.88
2023-01-22T07:22:59.157Z,102385.56
2023-01-22T07:27:51.396Z,102419.44
2023-01-22T07:32:42.977Z,102372.31
2023-01-22T07:37:34.931Z,102421.13
2023-01-22T07:42:26.487Z,102428.97
2023-01-22T07:47:18.131Z,102439.19
2023-01-22T07:52:09.684Z,102331.81
2023-01-22T07:57:01.215Z,102415.72
2023-01-22T08:01:55.044Z,102373.75
2023-01-22T08:06:46.661Z,102272.03
2023-01-22T08:11:38.643Z,102379.56
2023-01-22T08:16:30.217Z,102343.81
2023-01-22T08:21:21.791Z,102449.84
2023-01-22T08:26:13.451Z,102446.34
2023-01-22T08:31:09.398Z,102422.75
2023-01-22T08:36:03.062Z,102444.38
2023-01-22T08:40:54.625Z,102458.53
2023-01-22T08:45:49.303Z,102386.06
2023-01-22T08:50:41.241Z,102430.09
2023-01-22T08:55:32.803Z,102455.53
2023-01-22T09:00:25.398Z,102413.03
2023-01-22T09:05:17.188Z,102241.13
2023-01-22T09:10:12.343Z,102457.28
2023-01-22T09:15:04.253Z,102383.38
2023-01-22T09:19:58.657Z,102454.38
2023-01-22T09:24:50.218Z,102441.75
2023-01-22T09:29:42.965Z,102468.22
2023-01-22T09:34:34.665Z,102382.03
2023-01-22T09:39:26.952Z,102423.56
2023-01-22T09:44:24.615Z,102468.53
2023-01-22T09:49:19.935Z,102426.75
2023-01-22T09:54:15.436Z,102458.47
2023-01-22T09:59:13.185Z,102484.22
2023-01-22T10:04:14.131Z,102368.16
2023-01-22T10:09:18.807Z,102480.28
2023-01-22T10:14:15.777Z,102475.63
2023-01-22T10:19:16.480Z,102478.94
2023-01-22T10:24:10.859Z,102331.03
2023-01-22T10:29:13.333Z,102385.75
2023-01-22T10:34:13.537Z,102472.09
2023-01-22T10:39:13.815Z,102462.19
2023-01-22T10:44:26.587Z,102428.56
2023-01-22T10:49:28.194Z,102454.91
2023-01-22T10:54:43.825Z,102461.06
2023-01-22T10:59:35.811Z,102448.81
2023-01-22T11:04:33.302Z,102417.44
2023-01-22T11:09:38.090Z,102365.91
2023-01-22T11:14:35.920Z,102301.53
2023-01-22T11:19:37.491Z,102406.59
2023-01-22T11:24:37.588Z,102300.13
2023-01-22T11:29:44.745Z,102439.59
2023-01-22T11:35:11.152Z,102445.03
2023-01-22T11:40:28.118Z,102447.50
2023-01-22T11:45:41.612Z,102442.19
2023-01-22T11:50:49.287Z,102346.94
2023-01-22T11:55:49.063Z,102441.25
2023-01-22T12:00:43.699Z,102393.50
2023-01-22T12:06:02.838Z,102430.41
2023-01-22T12:11:23.240Z,102350.28
2023-01-22T12:16:25.752Z,102427.00
2023-01-22T12:21:28.561Z,102376.41
2023-01-22T12:26:27.839Z,102437.47
2023-01-22T12:31:37.831Z,102443.13
2023-01-22T12:36:32.643Z,102398.78
2023-01-22T12:41:31.566Z,102351.13
2023-01-22T12:46:33.863Z,102398.91
2023-01-22T12:51:37.702Z,102446.19
2023-01-22T12:56:32.502Z,102444.88
2023-01-22T13:01:33.099Z,102449.81
2023-01-22T13:06:43.589Z,102366.72
2023-01-22T13:11:38.178Z,102456.56
2023-01-22T13:16:36.283Z,102448.06
2023-01-22T13:21:31.142Z,102335.81
2023-01-22T13:26:26.465Z,102449.72
2023-01-22T13:31:18.565Z,102338.06
2023-01-22T13:36:11.570Z,102454.06
2023-01-22T13:41:25.288Z,102443.44
2023-01-22T13:46:17.204Z,102349.47
2023-01-22T13:51:18.190Z,102290.69
2023-01-22T13:56:17.844Z,102454.56
2023-01-22T14:01:12.145Z,102453.03
2023-01-22T14:06:06.906Z,102412.34
2023-01-22T14:11:00.348Z,102461.75
2023-01-22T14:16:01.592Z,102458.69
2023-01-22T14:20:53.240Z,102473.41
2023-01-22T14:25:47.313Z,102386.34
2023-01-22T14:30:39.084Z,102405.94
2023-01-22T14:35:31.156Z,102481.78
2023-01-22T14:40:25.050Z,102452.97
2023-01-22T14:45:18.397Z,102490.00
2023-01-22T14:50:10.798Z,102480.81
2023-01-22T14:55:02.402Z,102487.41
2023-01-22T14:59:54.011Z,102369.03
2023-01-22T15:04:46.025Z,102439.47
2023-01-22T15:09:38.342Z,102493.41
2023-01-22T15:14:29.994Z,102530.19
2023-01-22T15:19:21.653Z,102475.09
2023-01-22T15:24:13.691Z,102515.69
2023-01-22T15:29:07.912Z,102502.91
2023-01-22T15:34:01.925Z,102535.59
2023-01-22T15:38:53.558Z,102415.78
2023-01-22T15:43:46.303Z,102541.50
2023-01-22T15:48:38.192Z,102548.44
2023-01-22T15:53:29.927Z,102495.13
2023-01-22T15:58:22.770Z,102550.75
2023-01-22T16:03:15.492Z,102549.38
2023-01-22T16:08:07.035Z,102473.97
2023-01-22T16:12:58.835Z,102556.88
2023-01-22T16:17:50.428Z,102404.31
2023-01-22T16:22:45.497Z,102443.28
2023-01-22T16:27:37.229Z,102548.53
2023-01-22T16:32:28.824Z,102226.03
2023-01-22T16:37:20.389Z,102550.38
2023-01-22T16:42:12.193Z,102557.19
2023-01-22T16:47:03.946Z,102476.56
2023-01-22T16:52:12.942Z,102555.00
2023-01-22T16:57:13.743Z,102553.63
2023-01-22T17:02:12.100Z,102473.75
2023-01-22T17:07:06.086Z,102554.66
2023-01-22T17:12:03.727Z,102538.78
2023-01-22T17:16:56.393Z,102549.44
2023-01-22T17:21:55.253Z,102568.56
2023-01-22T17:26:48.155Z,102529.19
2023-01-22T17:31:39.904Z,102575.00
2023-01-22T17:36:31.615Z,102476.34
2023-01-22T17:41:24.931Z,102567.97
2023-01-22T17:46:22.472Z,102540.88
2023-01-22T17:51:19.486Z,102579.03
2023-01-22T17:56:14.711Z,102474.22
2023-01-22T18:01:08.109Z,102566.75
2023-01-22T18:06:00.063Z,102593.66
2023-01-22T18:10:52.761Z,102576.28
2023-01-22T18:15:48.180Z,102600.28
2023-01-22T18:20:43.815Z,102606.59
2023-01-22T18:25:46.883Z,102603.69
2023-01-22T18:30:38.603Z,102612.50
2023-01-22T18:35:30.207Z,102606.16
2023-01-22T18:40:21.803Z,102593.03
2023-01-22T18:45:14.972Z,102615.59
2023-01-22T18:50:08.939Z,102543.41
2023-01-22T18:55:00.519Z,102621.84
2023-01-22T18:59:52.180Z,102507.84
2023-01-22T19:04:44.345Z,102629.03
2023-01-22T19:09:36.373Z,102567.84
2023-01-22T19:14:28.651Z,102571.75
2023-01-22T19:19:22.776Z,102633.81
2023-01-22T19:24:16.758Z,102526.03
2023-01-22T19:29:12.032Z,102630.91
2023-01-22T19:34:05.608Z,102616.69
2023-01-22T19:38:58.997Z,102662.41
2023-01-22T19:43:55.432Z,102669.13
2023-01-22T19:48:47.145Z,102536.56
2023-01-22T19:53:39.804Z,102671.00
2023-01-22T19:58:31.569Z,102641.25
2023-01-22T20:03:23.939Z,102649.50
2023-01-22T20:08:15.828Z,102672.34
2023-01-22T20:13:09.661Z,102577.09
2023-01-22T20:18:01.449Z,102629.94
2023-01-22T20:22:53.249Z,102644.47
2023-01-22T20:27:45.049Z,102490.84
2023-01-22T20:32:36.561Z,102638.16
2023-01-22T20:37:28.199Z,102643.84
2023-01-22T20:42:19.908Z,102686.94
2023-01-22T20:47:11.900Z,102641.66
2023-01-22T20:52:04.478Z,102692.63
2023-01-22T20:56:56.384Z,102695.84
2023-01-22T21:01:48.426Z,102629.16
2023-01-22T21:06:40.807Z,102699.69
2023-01-22T21:11:34.342Z,102620.38
2023-01-22T21:16:32.496Z,102631.97
2023-01-22T21:21:24.555Z,102703.34
2023-01-22T21:26:19.322Z,102705.94
2023-01-22T21:31:17.270Z,102571.16
2023-01-22T21:36:09.947Z,102650.88
2023-01-22T21:41:12.425Z,102590.47
2023-01-22T21:46:22.428Z,102638.06
2023-01-22T21:51:14.713Z,102657.41
2023-01-22T21:56:07.211Z,102579.53
2023-01-22T22:01:06.512Z,102705.81
2023-01-22T22:46:31.923Z,102608.91
2023-01-22T23:33:41.436Z,102706.78
2023-01-22T23:38:33.433Z,102726.13
2023-01-22T23:43:25.298Z,102726.03
2023-01-22T23:48:17.521Z,102652.66
2023-01-22T23:53:09.109Z,102629.78
2023-01-22T23:58:00.619Z,102633.31
